Time;durP1;ratioP1;P1;durP2;ratioP2;P2;SDS_P1;SDS_P2;PMS_P1;PMS_P2;Temp;Humidity;BMP_temperature;BMP_pressure;BME280_temperature;BME280_humidity;BME280_pressure;Samples;Min_cycle;Max_cycle;Signal;HPM_P1;HPM_P2
2023/10/29 00:02:08;;;;;;;456.48;307.17;;;26.40;99.90;;;;;;5055701;28;20021;-64
2023/10/29 00:04:36;;;;;;;469.20;323.73;;;26.40;99.90;;;;;;5061812;28;20068;-63
2023/10/29 00:07:04;;;;;;;486.23;329.35;;;26.40;99.90;;;;;;5055436;28;20028;-64
2023/10/29 00:09:31;;;;;;;491.70;336.52;;;26.40;99.90;;;;;;5073164;28;20029;-65
2023/10/29 00:11:58;;;;;;;485.10;329.92;;;26.40;99.90;;;;;;5073272;28;20372;-65
2023/10/29 00:14:25;;;;;;;510.77;348.42;;;26.50;99.90;;;;;;5072992;28;20074;-65
2023/10/29 00:16:52;;;;;;;506.30;349.52;;;26.50;99.90;;;;;;5072981;28;20028;-64
2023/10/29 00:19:19;;;;;;;507.75;343.73;;;26.50;99.90;;;;;;5072871;28;20024;-64
2023/10/29 00:21:45;;;;;;;500.55;351.88;;;26.60;99.90;;;;;;5072925;28;20039;-65
2023/10/29 00:24:12;;;;;;;502.35;347.65;;;26.70;99.90;;;;;;5072855;28;20041;-65
2023/10/29 00:26:39;;;;;;;508.02;346.85;;;26.70;99.90;;;;;;5072791;28;20361;-65
2023/10/29 00:29:05;;;;;;;499.02;346.42;;;26.80;99.90;;;;;;5072710;28;20052;-66
2023/10/29 00:31:32;;;;;;;487.52;338.45;;;26.80;99.90;;;;;;5073185;28;20036;-65
2023/10/29 00:33:59;;;;;;;502.83;346.63;;;26.80;99.90;;;;;;5072798;28;20055;-65
2023/10/29 00:36:26;;;;;;;491.35;346.50;;;26.80;99.90;;;;;;5072801;28;20025;-65
2023/10/29 00:38:52;;;;;;;475.88;339.42;;;26.80;99.90;;;;;;5072882;28;20039;-65
2023/10/29 00:41:19;;;;;;;482.67;340.15;;;26.80;99.90;;;;;;5072694;28;20039;-66
2023/10/29 00:43:46;;;;;;;478.25;333.63;;;26.80;99.90;;;;;;5072985;28;20032;-64
2023/10/29 00:46:14;;;;;;;480.98;334.55;;;26.90;99.90;;;;;;5074229;28;20027;-64
2023/10/29 00:48:41;;;;;;;475.55;331.55;;;27.00;99.90;;;;;;5076300;28;20040;-65
2023/10/29 00:51:08;;;;;;;457.70;319.67;;;27.00;99.90;;;;;;5076275;28;20078;-65
2023/10/29 00:53:35;;;;;;;434.80;302.00;;;27.00;99.90;;;;;;5076132;28;20025;-64
2023/10/29 00:56:03;;;;;;;429.90;293.58;;;27.00;99.90;;;;;;5076225;28;20021;-65
2023/10/29 00:58:30;;;;;;;414.52;288.42;;;27.10;99.90;;;;;;5073271;28;20028;-65
2023/10/29 01:00:57;;;;;;;447.30;310.30;;;27.10;99.90;;;;;;5064947;28;20025;-63
2023/10/29 01:03:24;;;;;;;441.50;306.55;;;27.10;99.90;;;;;;5056168;28;20538;-64
2023/10/29 01:05:51;;;;;;;458.77;316.30;;;27.30;99.90;;;;;;5056136;28;20108;-63
2023/10/29 01:08:19;;;;;;;454.65;318.58;;;27.30;99.90;;;;;;5055902;28;20017;-67
2023/10/29 01:10:45;;;;;;;449.92;315.23;;;27.40;99.90;;;;;;5068444;28;20058;-66
2023/10/29 01:13:13;;;;;;;468.92;328.73;;;27.40;99.90;;;;;;5075989;28;20021;-62
2023/10/29 01:15:40;;;;;;;453.75;311.33;;;27.50;99.90;;;;;;5075650;28;20044;-64
2023/10/29 01:18:06;;;;;;;446.08;310.73;;;27.50;99.90;;;;;;5076059;28;20043;-64
2023/10/29 01:20:33;;;;;;;439.52;303.88;;;27.50;99.90;;;;;;5075734;28;20025;-63
2023/10/29 01:23:00;;;;;;;439.38;310.10;;;27.60;99.90;;;;;;5075240;28;20033;-62
2023/10/29 01:25:27;;;;;;;431.65;297.95;;;27.60;99.90;;;;;;5064803;28;20512;-63
2023/10/29 01:27:54;;;;;;;432.15;299.20;;;27.60;99.90;;;;;;5075641;28;20025;-63
2023/10/29 01:30:20;;;;;;;421.65;292.05;;;27.70;99.90;;;;;;5075510;28;20024;-64
2023/10/29 01:32:47;;;;;;;421.00;286.08;;;27.70;99.90;;;;;;5075918;28;20041;-64
2023/10/29 01:35:14;;;;;;;393.95;271.55;;;27.80;99.90;;;;;;5075928;28;20029;-64
2023/10/29 01:37:41;;;;;;;383.20;257.00;;;27.90;99.90;;;;;;5075327;28;20397;-63
2023/10/29 01:40:08;;;;;;;349.85;226.38;;;27.90;99.90;;;;;;5075347;28;20543;-63
2023/10/29 01:42:35;;;;;;;288.23;198.93;;;28.00;99.90;;;;;;5075508;28;20032;-63
2023/10/29 01:45:03;;;;;;;288.27;193.90;;;28.00;99.90;;;;;;5075127;28;20033;-63
2023/10/29 01:47:30;;;;;;;273.35;182.13;;;28.00;99.90;;;;;;5075463;28;20028;-63
2023/10/29 01:49:57;;;;;;;263.50;184.93;;;28.10;99.90;;;;;;5069068;28;20428;-63
2023/10/29 01:52:24;;;;;;;251.70;167.95;;;28.10;99.90;;;;;;5057620;28;20380;-64
2023/10/29 01:54:50;;;;;;;252.90;169.18;;;28.20;99.90;;;;;;5057738;28;20056;-63
2023/10/29 01:57:17;;;;;;;239.98;162.82;;;28.30;99.90;;;;;;5054067;28;20029;-63
2023/10/29 01:59:44;;;;;;;237.88;159.57;;;28.30;99.90;;;;;;5054813;28;20029;-64
2023/10/29 02:02:10;;;;;;;245.57;161.18;;;28.30;99.90;;;;;;5055062;28;20020;-64
2023/10/29 02:04:37;;;;;;;223.73;156.68;;;28.30;99.90;;;;;;5054834;28;20029;-64
2023/10/29 02:07:04;;;;;;;240.43;162.85;;;28.30;99.90;;;;;;5054833;28;20072;-64
2023/10/29 02:09:30;;;;;;;235.10;155.85;;;28.40;99.90;;;;;;5054843;28;20021;-64
2023/10/29 02:11:57;;;;;;;250.30;158.45;;;28.40;99.90;;;;;;5054972;28;20028;-63
2023/10/29 02:14:24;;;;;;;230.90;153.63;;;28.30;99.90;;;;;;5054663;28;20029;-63
2023/10/29 02:16:51;;;;;;;209.60;146.50;;;28.40;99.90;;;;;;5066305;28;20032;-63
2023/10/29 02:19:18;;;;;;;220.48;147.00;;;28.40;99.90;;;;;;5054605;28;20020;-63
2023/10/29 02:21:44;;;;;;;246.65;161.52;;;28.40;99.90;;;;;;5054546;28;20048;-63
2023/10/29 02:24:11;;;;;;;219.65;151.63;;;28.50;99.90;;;;;;5058744;28;20044;-64
2023/10/29 02:26:38;;;;;;;210.50;134.27;;;28.50;99.90;;;;;;5064016;28;20036;-63
2023/10/29 02:29:04;;;;;;;180.65;123.60;;;28.60;99.90;;;;;;5054764;28;20047;-63
2023/10/29 02:31:31;;;;;;;166.43;116.20;;;28.60;99.90;;;;;;5067994;28;20535;-63
2023/10/29 02:33:58;;;;;;;184.02;124.93;;;28.70;99.90;;;;;;5064767;28;20020;-63
2023/10/29 02:36:24;;;;;;;174.63;122.25;;;28.80;99.90;;;;;;5054304;28;20029;-63
2023/10/29 02:38:51;;;;;;;170.45;120.88;;;29.00;99.90;;;;;;5054382;28;20029;-63
2023/10/29 02:41:18;;;;;;;164.40;112.38;;;29.10;99.90;;;;;;5054390;28;20480;-63
2023/10/29 02:43:44;;;;;;;171.88;116.88;;;29.20;99.90;;;;;;5054247;28;20420;-62
2023/10/29 02:46:11;;;;;;;155.52;106.90;;;29.20;99.90;;;;;;5059621;28;20078;-62
2023/10/29 02:48:38;;;;;;;146.40;106.10;;;29.30;99.90;;;;;;5068770;28;20028;-62
2023/10/29 02:51:10;;;;;;;132.13;93.50;;;29.30;99.90;;;;;;5074128;28;20028;-62
2023/10/29 02:53:36;;;;;;;121.88;88.32;;;29.30;99.90;;;;;;5073776;28;20099;-62
2023/10/29 02:56:03;;;;;;;132.07;92.28;;;29.30;99.90;;;;;;5073736;28;20370;-62
2023/10/29 02:58:30;;;;;;;131.10;91.00;;;29.30;99.90;;;;;;5073890;28;20082;-62
2023/10/29 03:01:07;;;;;;;123.30;88.07;;;29.40;99.90;;;;;;5073629;28;20472;-62
2023/10/29 03:03:35;;;;;;;123.78;91.13;;;29.50;99.90;;;;;;5073874;28;20036;-63
2023/10/29 03:06:06;;;;;;;143.02;105.00;;;29.50;99.90;;;;;;5073869;28;20025;-64
2023/10/29 03:08:33;;;;;;;131.48;92.63;;;29.50;99.90;;;;;;5073559;28;20029;-66
2023/10/29 03:11:00;;;;;;;127.45;91.72;;;29.50;99.90;;;;;;5057695;28;20063;-70
2023/10/29 03:13:27;;;;;;;134.98;91.00;;;29.50;99.90;;;;;;5062530;28;20465;-65
2023/10/29 03:15:54;;;;;;;129.60;94.70;;;29.50;99.90;;;;;;5063122;28;20469;-63
2023/10/29 03:18:22;;;;;;;166.65;111.53;;;29.50;99.90;;;;;;5070369;28;20036;-64
2023/10/29 03:20:49;;;;;;;182.88;123.97;;;29.60;99.90;;;;;;5073330;28;20046;-67
2023/10/29 03:23:16;;;;;;;160.10;115.15;;;29.70;99.90;;;;;;5073544;28;20032;-66
2023/10/29 03:25:44;;;;;;;159.80;110.72;;;29.70;99.90;;;;;;5073291;28;20386;-66
2023/10/29 03:28:12;;;;;;;141.23;97.75;;;29.80;99.90;;;;;;5073631;28;20078;-63
2023/10/29 03:30:38;;;;;;;151.55;102.53;;;29.90;99.90;;;;;;5073441;28;20099;-63
2023/10/29 03:33:05;;;;;;;156.98;115.15;;;30.00;99.90;;;;;;5065114;28;20025;-64
2023/10/29 03:35:32;;;;;;;219.00;156.77;;;30.10;99.90;;;;;;5070092;28;20033;-63
2023/10/29 03:37:58;;;;;;;221.63;153.75;;;30.20;99.90;;;;;;5060283;28;20112;-63
2023/10/29 03:40:25;;;;;;;146.32;105.30;;;30.20;99.90;;;;;;5053732;28;20029;-62
2023/10/29 03:42:52;;;;;;;163.27;109.80;;;30.30;99.90;;;;;;5071129;28;20457;-62
2023/10/29 03:45:19;;;;;;;176.68;118.70;;;30.30;99.90;;;;;;5061577;28;20029;-61
2023/10/29 03:47:46;;;;;;;150.52;99.43;;;30.40;99.90;;;;;;5053096;28;20044;-64
2023/10/29 03:50:13;;;;;;;146.10;96.35;;;30.40;99.90;;;;;;5055138;28;20146;-63
2023/10/29 03:52:40;;;;;;;143.07;95.55;;;30.50;99.90;;;;;;5061769;28;20017;-62
2023/10/29 03:55:07;;;;;;;143.85;91.05;;;30.50;99.90;;;;;;5063325;28;20031;-62
2023/10/29 03:57:33;;;;;;;134.50;88.68;;;30.60;99.90;;;;;;5062750;28;20025;-63
2023/10/29 04:00:00;;;;;;;131.38;83.80;;;30.80;99.90;;;;;;5061548;28;20025;-62
2023/10/29 04:02:27;;;;;;;137.88;88.45;;;30.90;99.90;;;;;;5063311;28;20025;-62
2023/10/29 04:04:54;;;;;;;140.50;90.28;;;30.90;99.90;;;;;;5062518;28;20029;-63
2023/10/29 04:07:21;;;;;;;135.85;89.88;;;31.00;99.90;;;;;;5061434;28;20075;-63
2023/10/29 04:09:48;;;;;;;141.85;89.32;;;31.10;99.90;;;;;;5063027;28;20078;-63
2023/10/29 04:12:15;;;;;;;144.60;93.53;;;31.20;99.90;;;;;;5063134;28;20029;-63
2023/10/29 04:14:42;;;;;;;136.45;90.63;;;31.20;99.90;;;;;;5061400;28;20100;-61
2023/10/29 04:17:09;;;;;;;133.82;88.00;;;31.30;99.90;;;;;;5063676;28;20032;-62
2023/10/29 04:19:36;;;;;;;134.55;85.28;;;31.20;99.90;;;;;;5066857;28;20033;-62
2023/10/29 04:22:03;;;;;;;144.30;92.20;;;31.20;99.90;;;;;;5064186;28;20027;-62
2023/10/29 04:24:30;;;;;;;134.27;89.32;;;31.20;99.90;;;;;;5065579;28;20040;-62
2023/10/29 04:26:56;;;;;;;142.95;92.28;;;31.30;99.90;;;;;;5074913;28;20514;-63
2023/10/29 04:29:23;;;;;;;140.50;90.68;;;31.40;99.90;;;;;;5065185;28;20098;-63
2023/10/29 04:31:50;;;;;;;137.75;91.40;;;31.50;99.90;;;;;;5066626;28;20013;-63
2023/10/29 04:34:17;;;;;;;142.80;95.85;;;31.50;99.90;;;;;;5066777;28;20389;-63
2023/10/29 04:36:48;;;;;;;141.90;96.05;;;31.60;99.90;;;;;;5065006;28;20496;-63
2023/10/29 04:39:14;;;;;;;137.97;90.23;;;31.70;99.90;;;;;;5065656;28;20044;-62
2023/10/29 04:41:41;;;;;;;132.63;88.88;;;31.80;99.90;;;;;;5064537;28;20074;-62
2023/10/29 04:44:08;;;;;;;141.57;91.35;;;31.80;99.90;;;;;;5056632;28;20029;-63
2023/10/29 04:46:34;;;;;;;134.77;87.50;;;31.90;99.90;;;;;;5057329;28;20021;-63
2023/10/29 04:49:01;;;;;;;140.13;91.53;;;31.90;99.90;;;;;;5067815;28;20346;-63
2023/10/29 04:51:29;;;;;;;134.77;91.82;;;32.00;99.90;;;;;;5063530;28;20420;-63
2023/10/29 04:53:56;;;;;;;131.05;88.13;;;32.00;99.90;;;;;;5064804;28;20029;-63
2023/10/29 04:56:23;;;;;;;137.20;94.40;;;32.00;99.90;;;;;;5066555;28;20095;-63
2023/10/29 04:58:49;;;;;;;131.40;93.05;;;32.20;99.90;;;;;;5065910;28;20017;-63
2023/10/29 05:01:17;;;;;;;138.27;91.65;;;32.20;99.90;;;;;;5064682;28;20086;-63
2023/10/29 05:03:45;;;;;;;145.57;98.20;;;32.20;99.90;;;;;;5065639;28;20025;-62
2023/10/29 05:06:21;;;;;;;141.13;94.05;;;32.40;99.90;;;;;;5064401;28;20079;-63
2023/10/29 05:08:49;;;;;;;142.45;96.15;;;32.40;99.90;;;;;;5065394;28;20025;-60
2023/10/29 05:11:16;;;;;;;137.07;91.82;;;32.30;99.90;;;;;;5064378;28;20025;-61
2023/10/29 05:13:43;;;;;;;126.00;89.28;;;32.30;99.90;;;;;;5066089;28;20021;-61
2023/10/29 05:16:11;;;;;;;134.85;89.70;;;32.40;99.90;;;;;;5065479;28;20029;-61
2023/10/29 05:18:37;;;;;;;140.30;93.32;;;32.40;99.90;;;;;;5068035;28;20031;-62
2023/10/29 05:21:04;;;;;;;152.95;97.57;;;32.50;99.90;;;;;;5067446;28;20487;-61
2023/10/29 05:23:31;;;;;;;136.95;93.88;;;32.50;99.90;;;;;;5065948;28;20071;-61
2023/10/29 05:25:58;;;;;;;146.07;91.72;;;32.40;99.90;;;;;;5064603;28;20047;-62
2023/10/29 05:28:25;;;;;;;152.40;96.88;;;32.40;99.90;;;;;;5069230;28;20377;-62
2023/10/29 05:30:52;;;;;;;144.20;97.25;;;32.40;99.90;;;;;;5066176;28;20044;-62
2023/10/29 05:33:18;;;;;;;152.20;96.97;;;32.30;99.90;;;;;;5062019;28;20350;-62
2023/10/29 05:35:45;;;;;;;142.13;96.38;;;32.40;99.90;;;;;;5057322;28;20082;-62
2023/10/29 05:38:12;;;;;;;156.65;104.05;;;32.50;99.90;;;;;;5063955;28;20021;-61
2023/10/29 05:40:39;;;;;;;156.73;105.05;;;32.60;99.90;;;;;;5066476;28;20096;-62
2023/10/29 05:43:05;;;;;;;158.60;107.03;;;32.70;99.90;;;;;;5069937;28;20409;-62
2023/10/29 05:45:33;;;;;;;148.60;103.22;;;32.80;99.90;;;;;;5075629;28;20024;-61
2023/10/29 05:47:59;;;;;;;161.10;105.40;;;32.80;99.90;;;;;;5067241;28;20025;-62
2023/10/29 05:50:26;;;;;;;144.50;100.10;;;32.90;99.90;;;;;;5070191;28;20063;-62
2023/10/29 05:52:53;;;;;;;139.88;94.53;;;33.00;99.90;;;;;;5065269;28;20547;-61
2023/10/29 05:55:22;;;;;;;135.73;91.72;;;33.00;99.90;;;;;;5064027;28;20036;-61
2023/10/29 05:57:52;;;;;;;131.25;92.22;;;33.10;99.90;;;;;;5062783;28;20085;-62
2023/10/29 06:00:19;;;;;;;137.93;92.40;;;33.10;99.90;;;;;;5068602;28;20027;-62
2023/10/29 06:02:45;;;;;;;144.63;96.15;;;33.20;99.90;;;;;;5065080;28;20343;-62
2023/10/29 06:05:12;;;;;;;148.75;97.68;;;33.20;99.90;;;;;;5066356;28;20025;-62
2023/10/29 06:07:43;;;;;;;144.88;98.22;;;33.30;99.90;;;;;;5065625;28;20451;-61
2023/10/29 06:10:14;;;;;;;160.27;103.57;;;33.30;99.90;;;;;;5064755;28;20020;-62
2023/10/29 06:12:41;;;;;;;152.73;102.13;;;33.30;99.90;;;;;;5065400;28;20104;-62
2023/10/29 06:15:12;;;;;;;144.05;99.55;;;33.30;99.90;;;;;;5064507;28;20095;-62
2023/10/29 06:17:39;;;;;;;142.13;97.65;;;33.30;99.90;;;;;;5063032;28;20017;-61
2023/10/29 06:20:08;;;;;;;151.77;100.35;;;33.20;99.90;;;;;;5059696;28;20078;-61
2023/10/29 06:22:35;;;;;;;147.88;100.35;;;33.20;99.90;;;;;;5063267;28;20048;-62
2023/10/29 06:25:02;;;;;;;151.10;101.20;;;33.40;99.90;;;;;;5054542;28;20405;-62
2023/10/29 06:27:29;;;;;;;149.73;99.63;;;33.40;99.90;;;;;;5054526;28;20017;-61
2023/10/29 06:29:55;;;;;;;144.38;98.38;;;33.40;99.90;;;;;;5054504;28;20025;-62
2023/10/29 06:32:22;;;;;;;148.30;98.03;;;33.50;99.90;;;;;;5054365;28;20403;-62
2023/10/29 06:34:49;;;;;;;136.05;99.90;;;33.60;99.90;;;;;;5054391;28;20040;-62
2023/10/29 06:37:16;;;;;;;146.80;98.78;;;33.60;99.90;;;;;;5054228;28;20060;-61
2023/10/29 06:39:43;;;;;;;138.07;95.15;;;33.60;99.90;;;;;;5066665;28;20607;-62
2023/10/29 06:42:09;;;;;;;139.90;96.05;;;33.70;99.90;;;;;;5062995;28;20036;-63
2023/10/29 06:44:36;;;;;;;145.88;96.80;;;33.80;99.90;;;;;;5053571;28;20048;-63
2023/10/29 06:47:04;;;;;;;142.23;99.07;;;33.80;98.30;;;;;;5054016;28;20021;-62
2023/10/29 06:49:30;;;;;;;139.15;97.43;;;33.90;97.80;;;;;;5053991;28;20025;-62
2023/10/29 06:51:57;;;;;;;140.20;96.00;;;33.80;98.90;;;;;;5054041;28;20028;-63
2023/10/29 06:54:24;;;;;;;147.07;98.35;;;33.80;99.90;;;;;;5054195;28;20560;-62
2023/10/29 06:56:51;;;;;;;144.52;99.93;;;33.90;99.90;;;;;;5054000;28;20037;-63
2023/10/29 06:59:18;;;;;;;146.25;99.20;;;33.80;99.90;;;;;;5053798;28;20037;-61
2023/10/29 07:01:46;;;;;;;140.60;98.22;;;33.80;99.80;;;;;;5053965;28;20417;-62
2023/10/29 07:04:13;;;;;;;146.82;98.82;;;33.90;99.90;;;;;;5053781;28;20021;-63
2023/10/29 07:06:40;;;;;;;147.60;101.47;;;33.90;99.90;;;;;;5053742;28;20033;-62
2023/10/29 07:09:07;;;;;;;135.73;95.10;;;34.00;99.90;;;;;;5053501;28;20035;-62
2023/10/29 07:11:33;;;;;;;130.25;93.45;;;34.00;99.50;;;;;;5053718;28;20021;-62
2023/10/29 07:14:00;;;;;;;122.45;88.15;;;34.00;99.90;;;;;;5053762;28;20017;-62
2023/10/29 07:16:27;;;;;;;111.05;77.32;;;34.10;99.20;;;;;;5053566;28;20028;-62
2023/10/29 07:18:53;;;;;;;108.72;80.50;;;34.20;98.70;;;;;;5053559;28;20021;-63
2023/10/29 07:21:20;;;;;;;119.88;84.43;;;34.30;98.90;;;;;;5053536;28;20163;-62
2023/10/29 07:23:47;;;;;;;128.48;86.30;;;34.30;98.50;;;;;;5053264;28;20021;-62
2023/10/29 07:26:14;;;;;;;109.53;80.38;;;34.30;98.00;;;;;;5053701;28;20029;-62
2023/10/29 07:28:41;;;;;;;117.88;80.25;;;34.40;97.70;;;;;;5053420;28;20021;-62
2023/10/29 07:31:07;;;;;;;108.72;78.07;;;34.40;97.80;;;;;;5053317;28;20473;-62
2023/10/29 07:33:34;;;;;;;112.80;79.93;;;34.50;97.70;;;;;;5053458;28;20028;-62
2023/10/29 07:36:04;;;;;;;112.90;78.85;;;34.40;96.80;;;;;;5053507;28;20025;-62
2023/10/29 07:38:31;;;;;;;103.63;73.28;;;34.40;96.90;;;;;;5053180;28;20029;-62
2023/10/29 07:40:57;;;;;;;104.85;69.93;;;34.30;96.80;;;;;;5053544;28;20037;-62
2023/10/29 07:43:25;;;;;;;109.28;78.00;;;34.30;96.10;;;;;;5053206;28;20021;-62
2023/10/29 07:45:52;;;;;;;103.40;74.90;;;34.40;96.50;;;;;;5053068;28;20025;-62
2023/10/29 07:48:21;;;;;;;98.57;66.60;;;34.40;95.70;;;;;;5053208;28;20353;-62
2023/10/29 07:50:51;;;;;;;94.90;68.68;;;34.30;94.90;;;;;;5053138;28;20033;-62
2023/10/29 07:53:19;;;;;;;96.72;67.80;;;34.30;95.90;;;;;;5053056;28;20025;-62
2023/10/29 07:55:46;;;;;;;95.18;69.35;;;34.30;95.00;;;;;;5054273;28;20473;-63
2023/10/29 07:58:12;;;;;;;115.10;83.57;;;34.30;95.30;;;;;;5058539;28;20033;-63
2023/10/29 08:00:39;;;;;;;109.00;76.85;;;34.20;94.70;;;;;;5057463;28;20470;-63
2023/10/29 08:03:06;;;;;;;94.45;70.03;;;34.20;95.20;;;;;;5057368;28;20025;-63
2023/10/29 08:05:32;;;;;;;104.82;76.07;;;34.30;95.90;;;;;;5057268;28;20025;-62
2023/10/29 08:08:01;;;;;;;103.00;75.72;;;34.20;94.20;;;;;;5057110;28;20381;-63
2023/10/29 08:10:28;;;;;;;96.75;70.95;;;34.30;93.60;;;;;;5058055;28;20023;-63
2023/10/29 08:12:54;;;;;;;88.13;64.80;;;34.30;92.60;;;;;;5061193;28;20014;-63
2023/10/29 08:15:21;;;;;;;88.57;68.18;;;34.30;92.50;;;;;;5066236;28;20224;-64
2023/10/29 08:17:48;;;;;;;96.70;63.20;;;34.30;91.90;;;;;;5068239;28;20036;-63
2023/10/29 08:23:37;;;;;;;122.78;92.63;;;34.50;92.60;;;;;;5056928;28;20562;-63
2023/10/29 08:26:04;;;;;;;142.32;105.28;;;34.50;92.80;;;;;;5056876;28;20032;-62
2023/10/29 08:28:31;;;;;;;156.13;108.68;;;34.50;91.90;;;;;;5056808;28;20025;-64
2023/10/29 08:30:58;;;;;;;150.52;105.63;;;34.40;92.80;;;;;;5056735;28;20461;-64
2023/10/29 08:33:26;;;;;;;159.90;114.07;;;34.40;93.00;;;;;;5056583;28;20033;-62
2023/10/29 08:35:53;;;;;;;160.50;114.00;;;34.40;91.00;;;;;;5056458;28;20032;-64
2023/10/29 08:38:20;;;;;;;164.15;121.50;;;34.40;92.00;;;;;;5056946;28;20024;-64
2023/10/29 08:40:47;;;;;;;157.73;113.85;;;34.40;90.90;;;;;;5056535;28;20029;-65
2023/10/29 08:43:14;;;;;;;151.55;111.95;;;34.40;91.80;;;;;;5056698;28;20017;-66
2023/10/29 08:45:41;;;;;;;153.90;111.78;;;34.40;91.80;;;;;;5056386;28;20485;-63
2023/10/29 08:48:10;;;;;;;164.52;116.30;;;34.40;91.40;;;;;;5056498;28;20079;-64
2023/10/29 08:50:37;;;;;;;157.73;115.68;;;34.40;90.10;;;;;;5056527;28;20025;-64
2023/10/29 08:53:03;;;;;;;153.45;112.20;;;34.40;90.10;;;;;;5056484;28;20063;-63
2023/10/29 08:55:30;;;;;;;168.18;118.85;;;34.30;89.60;;;;;;5055236;28;20477;-64
2023/10/29 08:57:57;;;;;;;164.40;114.40;;;34.30;90.10;;;;;;5056352;28;20432;-64
2023/10/29 09:00:24;;;;;;;170.95;119.28;;;34.30;88.60;;;;;;5056425;28;20021;-64
2023/10/29 09:02:52;;;;;;;160.75;112.57;;;34.30;90.10;;;;;;5064812;28;20025;-64
2023/10/29 09:05:19;;;;;;;157.05;110.03;;;34.30;89.70;;;;;;5056245;28;20025;-63
2023/10/29 09:07:46;;;;;;;151.25;103.85;;;34.30;90.00;;;;;;5055441;28;20036;-64
2023/10/29 09:10:13;;;;;;;139.20;99.20;;;34.30;88.10;;;;;;5056034;28;20544;-62
2023/10/29 09:12:40;;;;;;;142.88;98.07;;;34.20;87.90;;;;;;5056411;28;20025;-64
2023/10/29 09:15:07;;;;;;;158.05;114.90;;;34.20;89.00;;;;;;5056229;28;20043;-64
2023/10/29 09:17:33;;;;;;;158.60;112.00;;;34.20;89.80;;;;;;5055802;28;20064;-64
2023/10/29 09:20:00;;;;;;;161.45;116.00;;;34.10;88.20;;;;;;5055817;28;20029;-64
2023/10/29 09:22:27;;;;;;;162.25;116.95;;;34.10;88.40;;;;;;5055772;28;20536;-64
2023/10/29 09:24:54;;;;;;;174.63;124.43;;;34.10;87.80;;;;;;5055512;28;20072;-63
2023/10/29 09:27:20;;;;;;;198.65;134.48;;;34.00;87.50;;;;;;5058093;28;20573;-64
2023/10/29 09:29:48;;;;;;;185.20;129.75;;;34.00;86.70;;;;;;5065673;28;20045;-64
2023/10/29 09:32:16;;;;;;;186.93;128.93;;;33.90;86.40;;;;;;5055476;28;20025;-65
2023/10/29 09:34:43;;;;;;;189.60;134.07;;;33.90;86.80;;;;;;5055606;28;20029;-64
2023/10/29 09:37:10;;;;;;;209.85;142.55;;;33.90;87.00;;;;;;5055606;28;20028;-64
2023/10/29 09:39:37;;;;;;;200.70;138.45;;;33.90;84.60;;;;;;5055540;28;20025;-65
2023/10/29 09:42:08;;;;;;;192.98;137.30;;;33.80;85.70;;;;;;5055343;28;20033;-64
2023/10/29 09:44:38;;;;;;;194.83;136.20;;;33.80;88.30;;;;;;5062673;28;20033;-62
2023/10/29 09:47:23;;;;;;;188.73;137.20;;;33.80;87.70;;;;;;5075609;28;20016;-64
2023/10/29 09:49:51;;;;;;;195.43;139.15;;;33.80;86.60;;;;;;5075452;28;20094;-64
2023/10/29 09:52:19;;;;;;;200.60;138.45;;;33.70;87.60;;;;;;5075193;28;20021;-65
2023/10/29 09:54:47;;;;;;;209.10;141.23;;;33.70;87.40;;;;;;5075607;28;20373;-65
2023/10/29 09:57:13;;;;;;;209.90;145.23;;;33.60;88.00;;;;;;5075281;28;20021;-65
2023/10/29 09:59:40;;;;;;;208.52;144.38;;;33.60;87.60;;;;;;5075609;28;20104;-63
2023/10/29 10:02:08;;;;;;;193.73;139.75;;;33.60;89.60;;;;;;5075320;28;20035;-63
2023/10/29 10:04:38;;;;;;;200.55;142.95;;;33.50;87.70;;;;;;5074999;28;20444;-63
2023/10/29 10:07:06;;;;;;;210.98;146.15;;;33.50;86.60;;;;;;5070990;28;20082;-68
2023/10/29 10:09:53;;;;;;;223.93;154.07;;;33.50;88.40;;;;;;5062979;28;20028;-62
2023/10/29 10:12:20;;;;;;;219.63;155.57;;;33.50;88.50;;;;;;5058783;28;20029;-63
2023/10/29 10:14:48;;;;;;;221.75;155.10;;;33.40;87.80;;;;;;5066472;28;20051;-63
2023/10/29 10:17:14;;;;;;;225.80;159.02;;;33.40;87.40;;;;;;5075286;28;20039;-67
2023/10/29 10:19:41;;;;;;;234.75;166.40;;;33.40;88.10;;;;;;5074190;28;20430;-66
2023/10/29 10:22:09;;;;;;;238.18;172.35;;;33.30;88.90;;;;;;5074766;28;20048;-64
2023/10/29 10:24:38;;;;;;;245.10;173.98;;;33.30;88.70;;;;;;5074479;28;20158;-65
2023/10/29 10:27:06;;;;;;;257.05;172.07;;;33.20;88.80;;;;;;5074938;28;20021;-63
2023/10/29 10:29:33;;;;;;;262.45;181.27;;;33.20;89.30;;;;;;5074636;28;20025;-63
2023/10/29 10:32:03;;;;;;;269.05;188.57;;;33.10;89.60;;;;;;5065666;28;20363;-63
2023/10/29 10:34:37;;;;;;;266.90;189.20;;;33.10;89.70;;;;;;5065266;28;20477;-63
2023/10/29 10:37:04;;;;;;;290.95;203.63;;;33.10;90.00;;;;;;5060258;28;20086;-64
2023/10/29 10:39:32;;;;;;;291.02;205.85;;;33.00;89.10;;;;;;5054541;28;20453;-64
2023/10/29 10:42:02;;;;;;;326.40;222.75;;;33.00;89.50;;;;;;5059031;28;20037;-64
2023/10/29 10:44:30;;;;;;;314.77;228.32;;;33.00;90.10;;;;;;5067521;28;20033;-64
2023/10/29 10:47:00;;;;;;;317.98;226.63;;;32.90;90.10;;;;;;5072873;28;20029;-65
2023/10/29 10:49:31;;;;;;;316.92;224.90;;;32.90;90.30;;;;;;5074300;28;20039;-63
2023/10/29 10:52:01;;;;;;;315.73;225.23;;;32.80;90.60;;;;;;5072129;28;20028;-62
2023/10/29 10:54:29;;;;;;;330.00;235.55;;;32.80;90.90;;;;;;5072552;28;20253;-66
2023/10/29 10:56:56;;;;;;;350.38;245.45;;;32.80;91.30;;;;;;5065043;28;20040;-61
2023/10/29 10:59:23;;;;;;;353.48;247.90;;;32.70;90.70;;;;;;5064014;28;20432;-65
2023/10/29 11:01:50;;;;;;;363.67;260.63;;;32.70;91.10;;;;;;5063723;28;20492;-62
2023/10/29 11:04:18;;;;;;;392.83;269.15;;;32.60;91.60;;;;;;5062212;28;20036;-63
2023/10/29 11:06:49;;;;;;;398.83;282.43;;;32.60;91.90;;;;;;5063166;28;20068;-63
2023/10/29 11:09:17;;;;;;;408.45;282.33;;;32.50;91.40;;;;;;5063962;28;20090;-62
2023/10/29 11:11:50;;;;;;;406.52;287.42;;;32.50;91.60;;;;;;5062566;28;20029;-62
2023/10/29 11:14:19;;;;;;;413.58;289.40;;;32.50;92.10;;;;;;5061861;28;20013;-63
2023/10/29 11:16:47;;;;;;;431.33;301.83;;;32.40;91.40;;;;;;5063293;28;20048;-62
2023/10/29 11:19:39;;;;;;;448.63;307.77;;;32.40;91.80;;;;;;5069361;28;20092;-64
2023/10/29 11:22:16;;;;;;;429.83;298.65;;;32.30;91.60;;;;;;5064255;28;20119;-64
2023/10/29 11:24:44;;;;;;;434.02;302.45;;;32.30;91.70;;;;;;5063511;28;20447;-62
2023/10/29 11:27:40;;;;;;;435.50;308.25;;;32.30;91.90;;;;;;5063464;28;20073;-62
2023/10/29 11:30:19;;;;;;;450.27;309.20;;;32.30;92.20;;;;;;5062783;28;20048;-64
2023/10/29 11:33:08;;;;;;;456.50;316.38;;;32.20;92.10;;;;;;5063898;28;20036;-62
2023/10/29 11:35:34;;;;;;;468.95;324.58;;;32.20;92.10;;;;;;5061435;28;20025;-61
2023/10/29 11:38:22;;;;;;;459.70;318.33;;;32.20;92.10;;;;;;5073666;28;20048;-63
2023/10/29 11:40:50;;;;;;;459.40;320.27;;;32.10;92.00;;;;;;5073314;28;20024;-62
2023/10/29 11:43:20;;;;;;;458.33;325.15;;;32.10;92.10;;;;;;5073264;28;20033;-62
2023/10/29 11:46:05;;;;;;;441.55;308.88;;;32.10;92.10;;;;;;5073327;28;20040;-61
2023/10/29 11:48:33;;;;;;;450.38;311.65;;;32.10;92.30;;;;;;5073443;28;20055;-61
2023/10/29 11:51:08;;;;;;;441.02;304.02;;;32.00;92.50;;;;;;5073293;28;20031;-62
2023/10/29 11:53:36;;;;;;;441.48;308.30;;;31.90;92.50;;;;;;5073189;28;20465;-62
2023/10/29 11:56:07;;;;;;;447.13;312.30;;;31.90;93.10;;;;;;5064344;28;20028;-63
2023/10/29 11:58:34;;;;;;;444.70;310.13;;;31.90;92.60;;;;;;5062642;28;20033;-63
2023/10/29 12:01:01;;;;;;;445.38;306.77;;;31.90;93.00;;;;;;5058064;28;20095;-63
2023/10/29 12:03:29;;;;;;;442.38;308.15;;;31.90;92.90;;;;;;5062826;28;20068;-63
2023/10/29 12:05:56;;;;;;;444.65;312.35;;;31.80;93.30;;;;;;5066533;28;20091;-63
2023/10/29 12:08:23;;;;;;;462.17;315.77;;;31.80;93.40;;;;;;5072105;28;20016;-63
2023/10/29 12:10:52;;;;;;;448.48;314.73;;;31.80;93.80;;;;;;5072798;28;20025;-63
2023/10/29 12:13:19;;;;;;;444.25;307.60;;;31.80;93.50;;;;;;5072765;28;20056;-63
2023/10/29 12:15:57;;;;;;;453.10;310.45;;;31.70;93.10;;;;;;5072852;28;20370;-63
2023/10/29 12:18:25;;;;;;;457.67;312.85;;;31.70;94.20;;;;;;5072751;28;20077;-63